createdAt,value
2017-09-22T00:01:09.705Z,96.90
2017-09-22T00:03:37.361Z,96.80
2017-09-22T00:06:04.924Z,97.00
2017-09-22T00:08:32.520Z,96.80
2017-09-22T00:11:00.091Z,96.90
2017-09-22T00:13:28.622Z,97.00
2017-09-22T00:15:56.177Z,96.90
2017-09-22T00:18:23.829Z,97.10
2017-09-22T00:20:51.409Z,96.80
2017-09-22T00:23:19.035Z,96.70
2017-09-22T00:25:47.397Z,96.90
2017-09-22T00:28:14.992Z,96.70
2017-09-22T00:30:43.313Z,96.80
2017-09-22T00:33:10.883Z,96.80
2017-09-22T00:35:38.670Z,96.90
2017-09-22T00:38:06.287Z,96.90
2017-09-22T00:40:33.896Z,96.80
2017-09-22T00:43:01.478Z,96.60
2017-09-22T00:45:29.141Z,96.40
2017-09-22T00:47:57.512Z,96.40
2017-09-22T00:50:25.069Z,96.40
2017-09-22T00:52:52.654Z,96.50
2017-09-22T00:55:20.274Z,96.40
2017-09-22T00:57:47.874Z,96.60
2017-09-22T01:00:15.457Z,96.50
2017-09-22T01:02:43.809Z,96.40
2017-09-22T01:05:11.445Z,96.30
2017-09-22T01:07:39.038Z,96.50
2017-09-22T01:10:06.673Z,96.40
2017-09-22T01:12:34.233Z,96.40
2017-09-22T01:15:01.815Z,96.50
2017-09-22T01:17:29.393Z,96.60
2017-09-22T01:19:56.969Z,96.50
2017-09-22T01:22:25.322Z,96.60
2017-09-22T01:24:52.901Z,96.50
2017-09-22T01:27:20.464Z,96.60
2017-09-22T01:29:48.077Z,96.70
2017-09-22T01:32:16.429Z,96.60
2017-09-22T01:34:44.034Z,96.60
2017-09-22T01:37:11.641Z,96.60
2017-09-22T01:39:39.207Z,96.80
2017-09-22T01:42:06.814Z,96.70
2017-09-22T01:44:35.153Z,96.70
2017-09-22T01:47:02.774Z,96.70
2017-09-22T01:49:30.384Z,96.60
2017-09-22T01:51:58.297Z,96.80
2017-09-22T01:54:26.640Z,96.50
2017-09-22T01:56:54.369Z,96.50
2017-09-22T01:59:21.981Z,96.60
2017-09-22T02:01:49.565Z,96.70
2017-09-22T02:04:17.903Z,96.60
2017-09-22T02:06:45.489Z,96.60
2017-09-22T02:09:13.045Z,96.60
2017-09-22T02:11:40.643Z,96.50
2017-09-22T02:14:08.980Z,96.40
2017-09-22T02:16:36.581Z,96.30
2017-09-22T02:19:04.169Z,96.40
2017-09-22T02:21:31.752Z,96.80
2017-09-22T02:23:59.342Z,96.50
2017-09-22T02:26:26.901Z,96.50
2017-09-22T02:28:54.492Z,96.50
2017-09-22T02:31:22.058Z,96.50
2017-09-22T02:33:49.631Z,96.50
2017-09-22T02:36:17.248Z,96.60
2017-09-22T02:38:44.838Z,96.70
2017-09-22T02:41:12.462Z,96.60
2017-09-22T02:43:40.025Z,96.60
2017-09-22T02:46:07.656Z,96.50
2017-09-22T02:48:36.023Z,96.80
2017-09-22T02:51:03.585Z,96.80
2017-09-22T02:53:31.201Z,96.50
2017-09-22T02:55:58.757Z,96.50
2017-09-22T02:58:26.373Z,96.70
2017-09-22T03:00:53.952Z,96.50
2017-09-22T03:03:22.329Z,96.80
2017-09-22T03:05:49.904Z,96.80
2017-09-22T03:08:17.478Z,96.60
2017-09-22T03:10:45.822Z,96.70
2017-09-22T03:13:13.422Z,97.10
2017-09-22T03:15:41.755Z,97.00
2017-09-22T03:18:09.347Z,97.00
2017-09-22T03:20:36.952Z,97.10
2017-09-22T03:23:04.508Z,97.10
2017-09-22T03:25:32.859Z,97.30
2017-09-22T03:28:00.439Z,97.30
2017-09-22T03:30:28.831Z,97.20
2017-09-22T03:32:57.203Z,97.20
2017-09-22T03:35:25.525Z,97.20
2017-09-22T03:37:53.119Z,97.20
2017-09-22T03:40:20.705Z,97.10
2017-09-22T03:42:48.318Z,97.00
2017-09-22T03:45:15.884Z,97.00
2017-09-22T03:47:43.497Z,97.00
2017-09-22T03:50:11.057Z,97.10
2017-09-22T03:52:38.621Z,97.10
2017-09-22T03:55:06.240Z,97.00
2017-09-22T03:57:33.804Z,97.10
2017-09-22T04:00:01.395Z,97.10
2017-09-22T04:02:28.948Z,97.20
2017-09-22T04:04:56.520Z,97.10
2017-09-22T04:07:24.095Z,97.00
2017-09-22T04:09:51.695Z,97.00
2017-09-22T04:12:20.013Z,97.30
2017-09-22T04:14:47.628Z,97.30
2017-09-22T04:17:15.951Z,97.20
2017-09-22T04:19:43.519Z,97.10
2017-09-22T04:22:11.110Z,97.00
2017-09-22T04:24:38.679Z,97.20
2017-09-22T04:27:06.265Z,97.30
2017-09-22T04:29:34.602Z,97.00
2017-09-22T04:32:02.203Z,97.00
2017-09-22T04:34:29.775Z,97.10
2017-09-22T04:36:58.130Z,97.10
2017-09-22T04:39:25.691Z,97.10
2017-09-22T04:41:53.287Z,97.20
2017-09-22T04:44:21.621Z,97.20
2017-09-22T04:46:49.215Z,97.20
2017-09-22T04:49:16.786Z,97.10
2017-09-22T04:51:45.114Z,97.20
2017-09-22T04:54:12.703Z,96.90
2017-09-22T04:56:40.274Z,97.00
2017-09-22T04:59:07.875Z,97.20
2017-09-22T05:01:36.196Z,97.10
2017-09-22T05:04:03.788Z,97.00
2017-09-22T05:06:31.399Z,97.10
2017-09-22T05:08:58.954Z,97.20
2017-09-22T05:11:27.313Z,97.00
2017-09-22T05:13:54.868Z,97.00
2017-09-22T05:16:23.777Z,97.00
2017-09-22T05:18:52.442Z,97.30
2017-09-22T05:21:20.025Z,97.30
2017-09-22T05:23:47.605Z,97.10
2017-09-22T05:26:15.944Z,97.00
2017-09-22T05:28:43.579Z,97.00
2017-09-22T05:31:11.185Z,96.90
2017-09-22T05:33:38.754Z,96.90
2017-09-22T05:36:06.357Z,96.90
2017-09-22T05:38:34.252Z,96.90
2017-09-22T05:41:01.823Z,97.00
2017-09-22T05:43:29.584Z,97.00
2017-09-22T05:45:57.145Z,97.20
2017-09-22T05:48:24.762Z,97.10
2017-09-22T05:50:52.344Z,97.30
2017-09-22T05:53:20.683Z,97.10
2017-09-22T05:55:49.203Z,97.10
2017-09-22T05:58:17.554Z,97.30
2017-09-22T06:00:45.157Z,97.30
2017-09-22T06:03:13.504Z,97.40
2017-09-22T06:05:41.877Z,97.30
2017-09-22T06:08:09.511Z,97.50
2017-09-22T06:10:37.095Z,97.60
2017-09-22T06:13:04.697Z,97.40
2017-09-22T06:15:33.204Z,97.30
2017-09-22T06:18:00.849Z,97.30
2017-09-22T06:20:28.429Z,97.40
2017-09-22T06:22:56.961Z,97.20
2017-09-22T06:25:24.832Z,97.20
2017-09-22T06:27:52.417Z,97.50
2017-09-22T06:30:20.026Z,97.70
2017-09-22T06:32:47.608Z,97.40
2017-09-22T06:35:15.270Z,97.40
2017-09-22T06:37:42.890Z,97.20
2017-09-22T06:40:10.491Z,97.50
2017-09-22T06:42:38.628Z,97.50
2017-09-22T06:45:06.267Z,97.70
2017-09-22T06:47:33.852Z,97.60
2017-09-22T06:50:01.426Z,98.00
2017-09-22T06:52:29.051Z,97.80
2017-09-22T06:54:56.623Z,97.70
2017-09-22T06:57:24.233Z,97.30
2017-09-22T06:59:52.570Z,97.40
2017-09-22T07:02:20.159Z,97.40
2017-09-22T07:04:47.825Z,97.40
2017-09-22T07:07:15.389Z,97.20
2017-09-22T07:09:42.987Z,96.90
2017-09-22T07:12:10.567Z,97.20
2017-09-22T07:14:38.241Z,97.20
2017-09-22T07:17:05.801Z,97.00
2017-09-22T07:19:33.384Z,97.30
2017-09-22T07:22:01.003Z,97.10
2017-09-22T07:24:29.388Z,97.70
2017-09-22T07:26:57.750Z,96.90
2017-09-22T07:29:25.312Z,96.90
2017-09-22T07:31:54.442Z,97.30
2017-09-22T07:34:22.238Z,97.30
2017-09-22T07:36:49.900Z,97.50
2017-09-22T07:39:17.552Z,97.10
2017-09-22T07:41:45.126Z,96.90
2017-09-22T07:44:12.745Z,97.60
2017-09-22T07:46:40.323Z,96.90
2017-09-22T07:49:08.707Z,96.70
2017-09-22T07:51:37.051Z,96.90
2017-09-22T07:54:04.616Z,96.90
2017-09-22T07:56:32.231Z,95.50
2017-09-22T07:58:59.859Z,96.10
2017-09-22T08:01:27.448Z,95.90
2017-09-22T08:03:55.773Z,96.10
2017-09-22T08:06:23.369Z,96.10
2017-09-22T08:08:51.726Z,95.90
2017-09-22T08:11:19.288Z,95.90
2017-09-22T08:13:46.890Z,95.80
2017-09-22T08:16:15.213Z,94.70
2017-09-22T08:18:42.951Z,94.70
2017-09-22T08:21:11.297Z,95.20
2017-09-22T08:23:38.893Z,95.20
2017-09-22T08:26:07.220Z,94.00
2017-09-22T08:28:34.780Z,94.00
2017-09-22T08:31:02.521Z,93.80
2017-09-22T08:33:30.103Z,93.60
2017-09-22T08:35:57.706Z,94.90
2017-09-22T08:38:25.268Z,94.00
2017-09-22T08:40:53.717Z,92.50
2017-09-22T08:43:21.307Z,92.40
2017-09-22T08:45:48.865Z,91.80
2017-09-22T08:48:16.448Z,91.30
2017-09-22T08:50:44.201Z,90.50
2017-09-22T08:53:11.819Z,89.50
2017-09-22T08:55:39.407Z,90.00
2017-09-22T08:58:07.019Z,90.00
2017-09-22T09:00:34.615Z,89.60
2017-09-22T09:03:02.185Z,90.40
2017-09-22T09:05:29.786Z,88.50
2017-09-22T09:07:57.349Z,88.00
2017-09-22T09:10:24.941Z,87.30
2017-09-22T09:12:52.557Z,85.50
2017-09-22T09:15:20.166Z,88.20
2017-09-22T09:17:47.742Z,88.70
2017-09-22T09:20:16.226Z,87.10
2017-09-22T09:22:44.591Z,85.70
2017-09-22T09:25:12.166Z,85.70
2017-09-22T09:27:39.766Z,81.90
2017-09-22T09:30:07.393Z,84.40
2017-09-22T09:32:34.999Z,82.30
2017-09-22T09:35:03.341Z,81.90
2017-09-22T09:37:30.919Z,80.00
2017-09-22T09:39:59.291Z,80.30
2017-09-22T09:42:27.010Z,80.20
2017-09-22T09:44:54.622Z,78.30
2017-09-22T09:47:22.967Z,75.20
2017-09-22T09:49:50.582Z,75.30
2017-09-22T09:52:18.901Z,74.80
2017-09-22T09:54:46.560Z,74.60
2017-09-22T09:57:14.200Z,74.90
2017-09-22T09:59:41.778Z,73.30
2017-09-22T10:02:09.368Z,74.30
2017-09-22T10:04:36.933Z,72.90
2017-09-22T10:07:04.574Z,73.80
2017-09-22T10:09:32.132Z,69.80
2017-09-22T10:11:59.797Z,69.30
2017-09-22T10:14:27.375Z,69.50
2017-09-22T10:16:54.975Z,69.10
2017-09-22T10:19:22.555Z,67.70
2017-09-22T10:21:50.171Z,68.40
2017-09-22T10:24:17.777Z,67.10
2017-09-22T10:26:45.347Z,65.40
2017-09-22T10:29:12.959Z,64.70
2017-09-22T10:31:40.743Z,65.10
2017-09-22T10:34:08.329Z,64.10
2017-09-22T10:36:36.690Z,67.00
2017-09-22T10:39:04.294Z,66.60
2017-09-22T10:41:31.923Z,66.90
2017-09-22T10:44:00.347Z,68.80
2017-09-22T10:46:28.706Z,67.80
2017-09-22T10:48:56.329Z,67.50
2017-09-22T10:51:23.921Z,69.90
2017-09-22T10:53:51.521Z,68.60
2017-09-22T10:56:19.544Z,69.50
2017-09-22T10:58:47.150Z,69.50
2017-09-22T11:01:14.741Z,69.20
2017-09-22T11:03:43.097Z,73.00
2017-09-22T11:06:10.661Z,72.90
2017-09-22T11:08:38.235Z,72.30
2017-09-22T11:11:05.850Z,72.30
2017-09-22T11:13:33.453Z,71.80
2017-09-22T11:16:01.731Z,68.60
2017-09-22T11:18:29.335Z,67.90
2017-09-22T11:20:56.962Z,67.30
2017-09-22T11:23:24.525Z,66.80
2017-09-22T11:25:52.141Z,67.20
2017-09-22T11:28:19.748Z,67.90
2017-09-22T11:30:47.520Z,67.00
2017-09-22T11:33:15.133Z,66.80
2017-09-22T11:35:42.911Z,66.10
2017-09-22T11:38:10.589Z,67.20
2017-09-22T11:40:38.170Z,66.80
2017-09-22T11:43:05.969Z,66.00
2017-09-22T11:45:34.336Z,63.90
2017-09-22T11:48:01.955Z,63.80
2017-09-22T11:50:29.547Z,63.30
2017-09-22T11:52:57.156Z,63.10
2017-09-22T11:55:25.561Z,64.90
2017-09-22T11:57:53.155Z,64.80
2017-09-22T12:00:20.771Z,65.80
2017-09-22T12:02:49.113Z,66.50
2017-09-22T12:05:16.707Z,66.50
2017-09-22T12:07:45.059Z,67.60
2017-09-22T12:10:12.742Z,67.60
2017-09-22T12:12:40.305Z,67.90
2017-09-22T12:15:07.877Z,68.40
2017-09-22T12:17:35.465Z,69.80
2017-09-22T12:20:03.046Z,68.50
2017-09-22T12:22:30.651Z,68.30
2017-09-22T12:24:58.204Z,66.70
2017-09-22T12:27:25.879Z,67.00
2017-09-22T12:29:53.540Z,67.30
2017-09-22T12:32:21.123Z,67.40
2017-09-22T12:34:48.735Z,65.60
2017-09-22T12:37:17.203Z,65.70
2017-09-22T12:39:45.789Z,69.00
2017-09-22T12:42:13.363Z,69.30
2017-09-22T12:44:41.028Z,69.20
2017-09-22T12:47:08.602Z,69.00
2017-09-22T12:49:36.268Z,69.00
2017-09-22T12:52:03.879Z,68.70
2017-09-22T12:54:31.498Z,69.30
2017-09-22T12:56:59.112Z,66.50
2017-09-22T12:59:27.145Z,67.50
2017-09-22T13:01:54.759Z,67.50
2017-09-22T13:04:23.147Z,67.30
2017-09-22T13:06:51.476Z,64.20
2017-09-22T13:09:19.097Z,64.20
2017-09-22T13:11:47.626Z,67.80
2017-09-22T13:14:15.215Z,67.70
2017-09-22T13:16:42.791Z,67.50
2017-09-22T13:19:11.178Z,67.10
2017-09-22T13:21:38.740Z,67.60
2017-09-22T13:24:06.326Z,67.60
2017-09-22T13:26:34.733Z,67.50
2017-09-22T13:29:02.424Z,67.50
2017-09-22T13:31:30.164Z,65.50
2017-09-22T13:33:57.735Z,66.40
2017-09-22T13:36:25.357Z,66.00
2017-09-22T13:38:52.955Z,67.10
2017-09-22T13:41:20.555Z,66.40
2017-09-22T13:43:48.206Z,67.20
2017-09-22T13:46:15.811Z,67.30
2017-09-22T13:48:43.411Z,67.10
2017-09-22T13:51:10.969Z,67.50
2017-09-22T13:53:39.394Z,69.60
2017-09-22T13:56:06.967Z,69.60
2017-09-22T13:58:34.539Z,69.00
2017-09-22T14:01:02.146Z,70.30
2017-09-22T14:03:29.787Z,71.40
2017-09-22T14:05:57.389Z,71.90
2017-09-22T14:08:24.971Z,71.30
2017-09-22T14:10:52.578Z,68.30
2017-09-22T14:13:20.304Z,71.70
2017-09-22T14:15:47.875Z,72.40
2017-09-22T14:18:15.469Z,71.90
2017-09-22T14:20:43.040Z,72.60
2017-09-22T14:23:10.870Z,71.90
2017-09-22T14:25:38.434Z,72.40
2017-09-22T14:28:06.025Z,72.90
2017-09-22T14:30:33.661Z,71.30
2017-09-22T14:33:01.427Z,73.40
2017-09-22T14:35:29.042Z,73.20
2017-09-22T14:37:57.397Z,74.80
2017-09-22T14:40:24.995Z,74.80
2017-09-22T14:42:53.395Z,76.10
2017-09-22T14:45:20.999Z,76.10
2017-09-22T14:47:48.583Z,75.10
2017-09-22T14:50:16.214Z,75.90
2017-09-22T14:52:43.871Z,76.60
2017-09-22T14:55:11.550Z,75.00
2017-09-22T14:57:39.142Z,75.70
2017-09-22T15:00:06.731Z,76.00
2017-09-22T15:02:35.103Z,74.80
2017-09-22T15:05:02.726Z,75.00
2017-09-22T15:07:30.321Z,72.60
2017-09-22T15:09:57.907Z,74.60
2017-09-22T15:12:26.310Z,74.90
2017-09-22T15:14:53.929Z,75.00
2017-09-22T15:17:21.515Z,72.90
2017-09-22T15:19:49.923Z,77.40
2017-09-22T15:22:17.543Z,77.40
2017-09-22T15:24:45.139Z,77.40
2017-09-22T15:27:13.554Z,79.40
2017-09-22T15:29:41.159Z,78.60
2017-09-22T15:32:08.765Z,78.30
2017-09-22T15:34:36.379Z,78.00
2017-09-22T15:37:05.523Z,78.40
2017-09-22T15:39:34.136Z,79.90
2017-09-22T15:42:01.778Z,79.00
2017-09-22T15:44:30.115Z,78.80
2017-09-22T15:46:57.725Z,78.80
2017-09-22T15:49:25.306Z,78.10
2017-09-22T15:51:52.931Z,78.70
2017-09-22T15:54:20.498Z,79.70
2017-09-22T15:56:48.863Z,83.80
2017-09-22T15:59:16.474Z,83.70
2017-09-22T16:01:44.049Z,81.40
2017-09-22T16:04:11.645Z,81.00
2017-09-22T16:06:39.238Z,84.00
2017-09-22T16:09:08.263Z,84.30
2017-09-22T16:11:35.944Z,84.30
2017-09-22T16:14:03.505Z,84.30
2017-09-22T16:16:31.138Z,88.10
2017-09-22T16:18:59.474Z,86.00
2017-09-22T16:21:27.074Z,86.00
2017-09-22T16:23:55.436Z,84.20
2017-09-22T16:26:22.989Z,85.00
2017-09-22T16:28:50.569Z,85.80
2017-09-22T16:31:18.211Z,85.10
2017-09-22T16:33:45.824Z,85.80
2017-09-22T16:36:13.449Z,86.20
2017-09-22T16:38:41.037Z,88.50
2017-09-22T16:41:08.643Z,89.70
2017-09-22T16:43:36.322Z,90.40
2017-09-22T16:46:03.900Z,90.20
2017-09-22T16:48:31.517Z,88.90
2017-09-22T16:51:00.252Z,90.00
2017-09-22T16:53:27.899Z,90.00
2017-09-22T16:55:55.456Z,91.10
2017-09-22T16:58:23.052Z,91.30
2017-09-22T17:00:50.639Z,90.70
2017-09-22T17:03:18.242Z,91.30
2017-09-22T17:05:45.823Z,92.30
2017-09-22T17:08:13.422Z,91.80
2017-09-22T17:10:41.778Z,90.70
2017-09-22T17:13:09.419Z,90.80
2017-09-22T17:15:37.107Z,91.30
2017-09-22T17:18:04.691Z,91.70
2017-09-22T17:20:32.272Z,92.50
2017-09-22T17:22:59.867Z,93.00
2017-09-22T17:25:28.276Z,94.00
2017-09-22T17:27:55.875Z,93.90
2017-09-22T17:30:23.454Z,93.70
2017-09-22T17:32:51.061Z,94.00
2017-09-22T17:35:18.653Z,94.10
2017-09-22T17:37:46.239Z,95.00
2017-09-22T17:40:14.732Z,93.60
2017-09-22T17:42:43.925Z,94.00
2017-09-22T17:45:11.517Z,95.40
2017-09-22T17:47:39.867Z,95.50
2017-09-22T17:50:08.247Z,96.00
2017-09-22T17:52:35.833Z,96.00
2017-09-22T17:55:04.191Z,96.30
2017-09-22T17:57:31.768Z,96.30
2017-09-22T17:59:59.401Z,95.80
2017-09-22T18:02:26.973Z,95.70
2017-09-22T18:04:54.555Z,96.20
2017-09-22T18:07:22.138Z,97.00
2017-09-22T18:09:50.472Z,97.90
2017-09-22T18:12:18.081Z,97.50
2017-09-22T18:14:45.703Z,98.30
2017-09-22T18:17:13.307Z,98.50
2017-09-22T18:19:41.023Z,98.60
2017-09-22T18:22:08.637Z,98.20
2017-09-22T18:24:36.220Z,98.60
2017-09-22T18:27:04.567Z,99.40
2017-09-22T18:29:32.201Z,99.40
2017-09-22T18:32:01.055Z,99.20
2017-09-22T18:34:29.419Z,99.30
2017-09-22T18:36:58.522Z,99.20
2017-09-22T18:39:26.100Z,99.20
2017-09-22T18:41:54.464Z,99.40
2017-09-22T18:44:22.043Z,99.40
2017-09-22T18:46:50.544Z,99.00
2017-09-22T18:49:18.240Z,99.00
2017-09-22T18:51:45.861Z,99.10
2017-09-22T18:54:14.192Z,98.90
2017-09-22T18:56:41.763Z,98.90
2017-09-22T18:59:09.516Z,97.80
2017-09-22T19:01:37.091Z,97.60
2017-09-22T19:04:04.702Z,97.70
2017-09-22T19:06:33.079Z,98.30
2017-09-22T19:09:01.668Z,98.00
2017-09-22T19:11:30.708Z,98.30
2017-09-22T19:13:58.283Z,98.30
2017-09-22T19:16:25.864Z,98.90
2017-09-22T19:18:53.420Z,98.90
2017-09-22T19:21:21.050Z,99.40
2017-09-22T19:23:48.733Z,99.60
2017-09-22T19:26:16.338Z,99.80
2017-09-22T19:28:43.897Z,99.20
2017-09-22T19:31:11.564Z,99.60
2017-09-22T19:33:39.191Z,99.70
2017-09-22T19:36:06.781Z,99.70
2017-09-22T19:38:34.398Z,99.50
2017-09-22T19:41:02.419Z,99.30
2017-09-22T19:43:30.015Z,99.40
2017-09-22T19:45:58.373Z,99.80
2017-09-22T19:48:25.961Z,99.80
2017-09-22T19:50:54.289Z,99.90
2017-09-22T19:53:21.905Z,99.90
2017-09-22T19:55:49.522Z,99.90
2017-09-22T19:58:17.094Z,99.90
2017-09-22T20:00:44.773Z,99.80
2017-09-22T20:03:12.450Z,99.20
2017-09-22T20:05:40.071Z,99.50
2017-09-22T20:08:07.636Z,98.70
2017-09-22T20:10:35.217Z,98.60
2017-09-22T20:13:03.659Z,98.50
2017-09-22T20:15:32.047Z,98.30
2017-09-22T20:17:59.654Z,98.20
2017-09-22T20:20:27.262Z,97.80
2017-09-22T20:22:55.607Z,98.60
2017-09-22T20:25:23.306Z,98.60
2017-09-22T20:27:51.680Z,99.10
2017-09-22T20:30:19.245Z,99.10
2017-09-22T20:32:46.832Z,99.20
2017-09-22T20:35:15.157Z,99.70
2017-09-22T20:37:42.757Z,99.70
2017-09-22T20:40:11.106Z,99.90
2017-09-22T20:42:39.537Z,99.90
2017-09-22T20:45:07.891Z,99.90
2017-09-22T20:47:36.255Z,99.90
2017-09-22T20:50:03.897Z,99.90
2017-09-22T20:52:31.481Z,99.90
2017-09-22T20:54:59.074Z,99.90
2017-09-22T20:57:26.651Z,99.90
2017-09-22T20:59:55.010Z,99.90
2017-09-22T21:02:23.354Z,99.90
2017-09-22T21:04:50.959Z,99.90
2017-09-22T21:07:20.043Z,99.90
2017-09-22T21:09:47.649Z,99.90
2017-09-22T21:12:15.973Z,99.90
2017-09-22T21:14:43.638Z,99.90
2017-09-22T21:17:11.230Z,99.90
2017-09-22T21:19:39.575Z,99.90
2017-09-22T21:22:07.185Z,99.90
2017-09-22T21:24:34.758Z,99.90
2017-09-22T21:27:02.374Z,99.90
2017-09-22T21:29:29.975Z,99.90
2017-09-22T21:31:57.579Z,99.90
2017-09-22T21:34:25.192Z,99.90
2017-09-22T21:36:52.810Z,99.90
2017-09-22T21:39:20.406Z,99.90
2017-09-22T21:41:47.983Z,99.90
2017-09-22T21:44:15.579Z,99.90
2017-09-22T21:46:43.969Z,99.90
2017-09-22T21:49:12.298Z,99.90
2017-09-22T21:51:39.853Z,99.90
2017-09-22T21:54:07.442Z,99.90
2017-09-22T21:56:35.110Z,99.90
2017-09-22T21:59:03.265Z,99.90
2017-09-22T22:01:30.956Z,99.90
2017-09-22T22:04:04.330Z,99.90
2017-09-22T22:06:37.857Z,99.90
2017-09-22T22:09:05.509Z,99.90
2017-09-22T22:11:34.492Z,99.90
2017-09-22T22:14:02.166Z,99.90
2017-09-22T22:16:29.845Z,99.90
2017-09-22T22:18:57.463Z,99.90
2017-09-22T22:21:25.205Z,99.90
2017-09-22T22:23:53.638Z,99.90
2017-09-22T22:26:21.511Z,99.90
2017-09-22T22:28:49.279Z,99.90
2017-09-22T22:31:16.969Z,99.90
2017-09-22T22:33:44.591Z,99.90
2017-09-22T22:36:24.307Z,99.90
2017-09-22T22:38:53.570Z,99.90
2017-09-22T22:41:21.245Z,99.90
2017-09-22T22:43:49.707Z,99.90
2017-09-22T22:46:17.386Z,99.90
2017-09-22T22:48:45.163Z,99.90
2017-09-22T22:51:12.772Z,99.90
2017-09-22T22:53:40.484Z,99.90
2017-09-22T22:56:08.270Z,99.90
2017-09-22T22:58:36.744Z,99.90
2017-09-22T23:01:04.406Z,99.90
2017-09-22T23:03:32.085Z,99.90
2017-09-22T23:05:59.927Z,99.90
2017-09-22T23:08:27.591Z,99.90
2017-09-22T23:10:55.238Z,99.90
2017-09-22T23:13:22.922Z,99.90
2017-09-22T23:15:50.693Z,99.90
2017-09-22T23:18:18.378Z,99.90
2017-09-22T23:20:46.027Z,99.90
2017-09-22T23:23:13.643Z,99.90
2017-09-22T23:25:42.092Z,99.90
2017-09-22T23:28:09.752Z,99.90
2017-09-22T23:30:37.508Z,99.90
2017-09-22T23:33:05.120Z,99.90
2017-09-22T23:35:33.575Z,99.90
2017-09-22T23:38:01.196Z,99.90
2017-09-22T23:40:28.918Z,99.90
2017-09-22T23:42:58.106Z,99.90
2017-09-22T23:45:25.720Z,99.90
2017-09-22T23:47:54.143Z,99.90
2017-09-22T23:50:21.783Z,99.90
2017-09-22T23:52:49.430Z,99.90
2017-09-22T23:55:17.854Z,99.90
2017-09-22T23:57:45.495Z,99.90
